sensor_id;sensor_type;location;lat;lon;timestamp;temperature;humidity
56861;DHT22;42744;51.094;3.490;2024-02-15T00:02:23;11.90;99.90
56861;DHT22;42744;51.094;3.490;2024-02-15T00:04:49;11.90;99.90
56861;DHT22;42744;51.094;3.490;2024-02-15T00:07:15;12.00;99.90
56861;DHT22;42744;51.094;3.490;2024-02-15T00:09:41;12.00;99.90
56861;DHT22;42744;51.094;3.490;2024-02-15T00:12:07;11.90;99.90
56861;DHT22;42744;51.094;3.490;2024-02-15T00:14:33;12.00;99.90
56861;DHT22;42744;51.094;3.490;2024-02-15T00:16:59;12.00;99.90
56861;DHT22;42744;51.094;3.490;2024-02-15T00:19:25;12.00;99.90
56861;DHT22;42744;51.094;3.490;2024-02-15T00:21:51;12.00;99.90
56861;DHT22;42744;51.094;3.490;2024-02-15T00:24:17;12.00;99.90
56861;DHT22;42744;51.094;3.490;2024-02-15T00:26:43;12.00;99.90
56861;DHT22;42744;51.094;3.490;2024-02-15T00:29:10;12.10;99.90
56861;DHT22;42744;51.094;3.490;2024-02-15T00:31:35;12.10;99.90
56861;DHT22;42744;51.094;3.490;2024-02-15T00:34:02;12.20;99.90
56861;DHT22;42744;51.094;3.490;2024-02-15T00:36:30;12.10;99.90
56861;DHT22;42744;51.094;3.490;2024-02-15T00:38:56;12.20;99.90
56861;DHT22;42744;51.094;3.490;2024-02-15T00:41:22;12.20;99.90
56861;DHT22;42744;51.094;3.490;2024-02-15T00:43:48;12.20;99.90
56861;DHT22;42744;51.094;3.490;2024-02-15T00:46:17;12.30;99.90
56861;DHT22;42744;51.094;3.490;2024-02-15T00:48:43;12.30;99.90
56861;DHT22;42744;51.094;3.490;2024-02-15T00:51:09;12.30;99.90
56861;DHT22;42744;51.094;3.490;2024-02-15T00:53:35;12.30;99.90
56861;DHT22;42744;51.094;3.490;2024-02-15T00:56:01;12.30;99.90
56861;DHT22;42744;51.094;3.490;2024-02-15T00:58:27;12.30;99.90
56861;DHT22;42744;51.094;3.490;2024-02-15T01:00:53;12.30;99.90
56861;DHT22;42744;51.094;3.490;2024-02-15T01:03:19;12.30;99.90
56861;DHT22;42744;51.094;3.490;2024-02-15T01:05:46;12.30;99.90
56861;DHT22;42744;51.094;3.490;2024-02-15T01:08:11;12.30;99.90
56861;DHT22;42744;51.094;3.490;2024-02-15T01:10:38;12.40;99.90
56861;DHT22;42744;51.094;3.490;2024-02-15T01:13:04;12.40;99.90
56861;DHT22;42744;51.094;3.490;2024-02-15T01:15:30;12.40;99.90
56861;DHT22;42744;51.094;3.490;2024-02-15T01:17:56;12.40;99.90
56861;DHT22;42744;51.094;3.490;2024-02-15T01:20:22;12.40;99.90
56861;DHT22;42744;51.094;3.490;2024-02-15T01:22:48;12.40;99.90
56861;DHT22;42744;51.094;3.490;2024-02-15T01:25:16;12.40;99.90
56861;DHT22;42744;51.094;3.490;2024-02-15T01:27:42;12.40;99.90
56861;DHT22;42744;51.094;3.490;2024-02-15T01:30:09;12.30;99.90
56861;DHT22;42744;51.094;3.490;2024-02-15T01:32:36;12.30;99.90
56861;DHT22;42744;51.094;3.490;2024-02-15T01:35:03;12.30;99.90
56861;DHT22;42744;51.094;3.490;2024-02-15T01:37:28;12.30;99.90
56861;DHT22;42744;51.094;3.490;2024-02-15T01:39:55;12.30;99.90
56861;DHT22;42744;51.094;3.490;2024-02-15T01:42:21;12.30;99.90
56861;DHT22;42744;51.094;3.490;2024-02-15T01:44:47;12.20;99.90
56861;DHT22;42744;51.094;3.490;2024-02-15T01:47:17;12.20;99.90
56861;DHT22;42744;51.094;3.490;2024-02-15T01:49:45;12.20;99.90
56861;DHT22;42744;51.094;3.490;2024-02-15T01:52:16;12.20;99.90
56861;DHT22;42744;51.094;3.490;2024-02-15T01:54:43;12.20;99.90
56861;DHT22;42744;51.094;3.490;2024-02-15T01:57:09;12.20;99.90
56861;DHT22;42744;51.094;3.490;2024-02-15T01:59:36;12.20;99.90
56861;DHT22;42744;51.094;3.490;2024-02-15T02:02:02;12.20;99.90
56861;DHT22;42744;51.094;3.490;2024-02-15T02:04:30;12.20;99.90
56861;DHT22;42744;51.094;3.490;2024-02-15T02:06:57;12.20;99.90
56861;DHT22;42744;51.094;3.490;2024-02-15T02:09:24;12.10;99.90
56861;DHT22;42744;51.094;3.490;2024-02-15T02:11:51;12.20;99.90
56861;DHT22;42744;51.094;3.490;2024-02-15T02:14:17;12.10;99.90
56861;DHT22;42744;51.094;3.490;2024-02-15T02:16:46;12.20;99.90
56861;DHT22;42744;51.094;3.490;2024-02-15T02:19:12;12.10;99.90
56861;DHT22;42744;51.094;3.490;2024-02-15T02:21:38;12.10;99.90
56861;DHT22;42744;51.094;3.490;2024-02-15T02:24:14;12.10;99.90
56861;DHT22;42744;51.094;3.490;2024-02-15T02:26:44;12.10;99.90
56861;DHT22;42744;51.094;3.490;2024-02-15T02:29:10;12.10;99.90
56861;DHT22;42744;51.094;3.490;2024-02-15T02:31:36;12.10;99.90
56861;DHT22;42744;51.094;3.490;2024-02-15T02:34:02;12.10;99.90
56861;DHT22;42744;51.094;3.490;2024-02-15T02:36:29;12.10;99.90
56861;DHT22;42744;51.094;3.490;2024-02-15T02:38:55;12.10;99.90
56861;DHT22;42744;51.094;3.490;2024-02-15T02:41:26;12.10;99.90
56861;DHT22;42744;51.094;3.490;2024-02-15T02:43:58;12.10;99.90
56861;DHT22;42744;51.094;3.490;2024-02-15T02:46:24;12.10;99.90
56861;DHT22;42744;51.094;3.490;2024-02-15T02:48:50;12.10;99.90
56861;DHT22;42744;51.094;3.490;2024-02-15T02:51:16;12.10;99.90
56861;DHT22;42744;51.094;3.490;2024-02-15T02:53:42;12.10;99.90
56861;DHT22;42744;51.094;3.490;2024-02-15T02:56:09;12.10;99.90
56861;DHT22;42744;51.094;3.490;2024-02-15T02:58:35;12.10;99.90
56861;DHT22;42744;51.094;3.490;2024-02-15T03:01:01;12.10;99.90
56861;DHT22;42744;51.094;3.490;2024-02-15T03:03:27;12.10;99.90
56861;DHT22;42744;51.094;3.490;2024-02-15T03:05:53;12.10;99.90
56861;DHT22;42744;51.094;3.490;2024-02-15T03:08:22;12.10;99.90
56861;DHT22;42744;51.094;3.490;2024-02-15T03:10:50;12.10;99.90
56861;DHT22;42744;51.094;3.490;2024-02-15T03:13:17;12.10;99.90
56861;DHT22;42744;51.094;3.490;2024-02-15T03:15:45;12.10;99.90
56861;DHT22;42744;51.094;3.490;2024-02-15T03:18:15;12.10;99.90
56861;DHT22;42744;51.094;3.490;2024-02-15T03:20:41;12.10;99.90
56861;DHT22;42744;51.094;3.490;2024-02-15T03:23:08;12.10;99.90
56861;DHT22;42744;51.094;3.490;2024-02-15T03:25:34;12.10;99.90
56861;DHT22;42744;51.094;3.490;2024-02-15T03:28:00;12.10;99.90
56861;DHT22;42744;51.094;3.490;2024-02-15T03:30:31;12.10;99.90
56861;DHT22;42744;51.094;3.490;2024-02-15T03:32:58;12.10;99.90
56861;DHT22;42744;51.094;3.490;2024-02-15T03:35:25;12.10;99.90
56861;DHT22;42744;51.094;3.490;2024-02-15T03:37:52;12.10;99.90
56861;DHT22;42744;51.094;3.490;2024-02-15T03:40:20;12.10;99.90
56861;DHT22;42744;51.094;3.490;2024-02-15T03:42:47;12.10;99.90
56861;DHT22;42744;51.094;3.490;2024-02-15T03:45:13;12.10;99.90
56861;DHT22;42744;51.094;3.490;2024-02-15T03:47:39;12.10;99.90
56861;DHT22;42744;51.094;3.490;2024-02-15T03:50:06;12.10;99.90
56861;DHT22;42744;51.094;3.490;2024-02-15T03:52:35;12.10;99.90
56861;DHT22;42744;51.094;3.490;2024-02-15T03:55:02;12.10;99.90
56861;DHT22;42744;51.094;3.490;2024-02-15T03:57:28;12.10;99.90
56861;DHT22;42744;51.094;3.490;2024-02-15T03:59:54;12.10;99.90
56861;DHT22;42744;51.094;3.490;2024-02-15T04:02:24;12.10;99.90
56861;DHT22;42744;51.094;3.490;2024-02-15T04:04:54;12.10;99.90
56861;DHT22;42744;51.094;3.490;2024-02-15T04:07:23;12.10;99.90
56861;DHT22;42744;51.094;3.490;2024-02-15T04:09:53;12.00;99.90
56861;DHT22;42744;51.094;3.490;2024-02-15T04:12:19;12.00;99.90
56861;DHT22;42744;51.094;3.490;2024-02-15T04:14:45;12.00;99.90
56861;DHT22;42744;51.094;3.490;2024-02-15T04:17:11;12.10;99.90
56861;DHT22;42744;51.094;3.490;2024-02-15T04:19:46;12.00;99.90
56861;DHT22;42744;51.094;3.490;2024-02-15T04:22:12;12.00;99.90
56861;DHT22;42744;51.094;3.490;2024-02-15T04:24:38;12.00;99.90
56861;DHT22;42744;51.094;3.490;2024-02-15T04:27:06;12.00;99.90
56861;DHT22;42744;51.094;3.490;2024-02-15T04:29:38;12.10;99.90
56861;DHT22;42744;51.094;3.490;2024-02-15T04:32:07;12.00;99.90
56861;DHT22;42744;51.094;3.490;2024-02-15T04:34:37;12.00;99.90
56861;DHT22;42744;51.094;3.490;2024-02-15T04:37:03;12.00;99.90
56861;DHT22;42744;51.094;3.490;2024-02-15T04:39:36;12.00;99.90
56861;DHT22;42744;51.094;3.490;2024-02-15T04:42:03;12.00;99.90
56861;DHT22;42744;51.094;3.490;2024-02-15T04:44:31;12.00;99.90
56861;DHT22;42744;51.094;3.490;2024-02-15T04:47:01;12.00;99.90
56861;DHT22;42744;51.094;3.490;2024-02-15T04:49:29;12.00;99.90
56861;DHT22;42744;51.094;3.490;2024-02-15T04:51:55;12.00;99.90
56861;DHT22;42744;51.094;3.490;2024-02-15T04:54:23;12.00;99.90
56861;DHT22;42744;51.094;3.490;2024-02-15T04:56:49;12.00;99.90
56861;DHT22;42744;51.094;3.490;2024-02-15T04:59:20;12.00;99.90
56861;DHT22;42744;51.094;3.490;2024-02-15T05:01:47;12.00;99.90
56861;DHT22;42744;51.094;3.490;2024-02-15T05:04:15;12.00;99.90
56861;DHT22;42744;51.094;3.490;2024-02-15T05:06:41;12.00;99.90
56861;DHT22;42744;51.094;3.490;2024-02-15T05:09:07;12.00;99.90
56861;DHT22;42744;51.094;3.490;2024-02-15T05:11:37;12.00;99.90
56861;DHT22;42744;51.094;3.490;2024-02-15T05:14:03;12.10;99.90
56861;DHT22;42744;51.094;3.490;2024-02-15T05:16:38;12.00;99.90
56861;DHT22;42744;51.094;3.490;2024-02-15T05:19:11;12.00;99.90
56861;DHT22;42744;51.094;3.490;2024-02-15T05:21:37;12.00;99.90
56861;DHT22;42744;51.094;3.490;2024-02-15T05:24:04;12.10;99.90
56861;DHT22;42744;51.094;3.490;2024-02-15T05:26:30;12.10;99.90
56861;DHT22;42744;51.094;3.490;2024-02-15T05:28:56;12.00;99.90
56861;DHT22;42744;51.094;3.490;2024-02-15T05:31:23;12.00;99.90
56861;DHT22;42744;51.094;3.490;2024-02-15T05:33:53;12.10;99.90
56861;DHT22;42744;51.094;3.490;2024-02-15T05:36:20;12.10;99.90
56861;DHT22;42744;51.094;3.490;2024-02-15T05:38:52;12.10;99.90
56861;DHT22;42744;51.094;3.490;2024-02-15T05:41:18;12.10;99.90
56861;DHT22;42744;51.094;3.490;2024-02-15T05:43:45;12.10;99.90
56861;DHT22;42744;51.094;3.490;2024-02-15T05:46:12;12.10;99.90
56861;DHT22;42744;51.094;3.490;2024-02-15T05:48:38;12.00;99.90
56861;DHT22;42744;51.094;3.490;2024-02-15T05:51:06;12.10;99.90
56861;DHT22;42744;51.094;3.490;2024-02-15T05:53:34;12.00;99.90
56861;DHT22;42744;51.094;3.490;2024-02-15T05:56:08;12.00;99.90
56861;DHT22;42744;51.094;3.490;2024-02-15T05:58:35;12.00;99.90
56861;DHT22;42744;51.094;3.490;2024-02-15T06:01:02;12.00;99.90
56861;DHT22;42744;51.094;3.490;2024-02-15T06:03:32;12.00;99.90
56861;DHT22;42744;51.094;3.490;2024-02-15T06:06:02;12.10;99.90
56861;DHT22;42744;51.094;3.490;2024-02-15T06:08:36;12.00;99.90
56861;DHT22;42744;51.094;3.490;2024-02-15T06:11:03;12.00;99.90
56861;DHT22;42744;51.094;3.490;2024-02-15T06:13:31;12.10;99.90
56861;DHT22;42744;51.094;3.490;2024-02-15T06:15:57;12.00;99.90
56861;DHT22;42744;51.094;3.490;2024-02-15T06:18:32;12.00;99.90
56861;DHT22;42744;51.094;3.490;2024-02-15T06:20:59;12.00;99.90
56861;DHT22;42744;51.094;3.490;2024-02-15T06:23:26;12.00;99.90
56861;DHT22;42744;51.094;3.490;2024-02-15T06:25:54;12.00;99.90
56861;DHT22;42744;51.094;3.490;2024-02-15T06:28:21;12.00;99.90
56861;DHT22;42744;51.094;3.490;2024-02-15T06:31:10;12.00;99.90
56861;DHT22;42744;51.094;3.490;2024-02-15T06:33:55;12.00;99.90
56861;DHT22;42744;51.094;3.490;2024-02-15T06:36:47;12.00;99.90
56861;DHT22;42744;51.094;3.490;2024-02-15T06:39:33;12.00;99.90
56861;DHT22;42744;51.094;3.490;2024-02-15T06:42:13;12.00;99.90
56861;DHT22;42744;51.094;3.490;2024-02-15T06:44:47;12.00;99.90
56861;DHT22;42744;51.094;3.490;2024-02-15T06:47:14;12.00;99.90
56861;DHT22;42744;51.094;3.490;2024-02-15T06:49:43;12.00;99.90
56861;DHT22;42744;51.094;3.490;2024-02-15T06:52:11;12.00;99.90
56861;DHT22;42744;51.094;3.490;2024-02-15T06:54:40;12.00;99.90
56861;DHT22;42744;51.094;3.490;2024-02-15T06:57:07;12.00;99.90
56861;DHT22;42744;51.094;3.490;2024-02-15T06:59:33;12.00;99.90
56861;DHT22;42744;51.094;3.490;2024-02-15T07:02:00;12.00;99.90
56861;DHT22;42744;51.094;3.490;2024-02-15T07:04:27;12.00;99.90
56861;DHT22;42744;51.094;3.490;2024-02-15T07:06:53;12.00;99.90
56861;DHT22;42744;51.094;3.490;2024-02-15T07:09:23;12.00;99.90
56861;DHT22;42744;51.094;3.490;2024-02-15T07:11:51;11.90;99.90
56861;DHT22;42744;51.094;3.490;2024-02-15T07:14:17;11.90;99.90
56861;DHT22;42744;51.094;3.490;2024-02-15T07:16:47;11.90;99.90
56861;DHT22;42744;51.094;3.490;2024-02-15T07:19:13;11.90;99.90
56861;DHT22;42744;51.094;3.490;2024-02-15T07:21:40;11.90;99.90
56861;DHT22;42744;51.094;3.490;2024-02-15T07:24:06;11.90;99.90
56861;DHT22;42744;51.094;3.490;2024-02-15T07:26:32;11.90;99.90
56861;DHT22;42744;51.094;3.490;2024-02-15T07:29:00;11.90;99.90
56861;DHT22;42744;51.094;3.490;2024-02-15T07:31:29;11.90;99.90
56861;DHT22;42744;51.094;3.490;2024-02-15T07:33:56;11.80;99.90
56861;DHT22;42744;51.094;3.490;2024-02-15T07:36:23;11.80;99.90
56861;DHT22;42744;51.094;3.490;2024-02-15T07:38:50;11.80;99.90
56861;DHT22;42744;51.094;3.490;2024-02-15T07:41:23;11.80;99.90
56861;DHT22;42744;51.094;3.490;2024-02-15T07:43:50;11.80;99.90
56861;DHT22;42744;51.094;3.490;2024-02-15T07:46:16;11.80;99.90
56861;DHT22;42744;51.094;3.490;2024-02-15T07:48:43;11.80;99.90
56861;DHT22;42744;51.094;3.490;2024-02-15T07:51:14;11.80;99.90
56861;DHT22;42744;51.094;3.490;2024-02-15T07:53:41;11.80;99.90
56861;DHT22;42744;51.094;3.490;2024-02-15T07:56:09;11.80;99.90
56861;DHT22;42744;51.094;3.490;2024-02-15T07:58:40;11.80;99.90
56861;DHT22;42744;51.094;3.490;2024-02-15T08:01:07;11.80;99.90
56861;DHT22;42744;51.094;3.490;2024-02-15T08:03:35;11.80;99.90
56861;DHT22;42744;51.094;3.490;2024-02-15T08:06:02;11.80;99.90
56861;DHT22;42744;51.094;3.490;2024-02-15T08:08:33;11.90;99.90
56861;DHT22;42744;51.094;3.490;2024-02-15T08:11:02;11.90;99.90
56861;DHT22;42744;51.094;3.490;2024-02-15T08:13:28;11.90;99.90
56861;DHT22;42744;51.094;3.490;2024-02-15T08:15:55;12.00;99.90
56861;DHT22;42744;51.094;3.490;2024-02-15T08:18:24;12.00;99.90
56861;DHT22;42744;51.094;3.490;2024-02-15T08:20:51;12.00;99.90
56861;DHT22;42744;51.094;3.490;2024-02-15T08:23:18;12.00;99.90
56861;DHT22;42744;51.094;3.490;2024-02-15T08:25:44;12.10;99.90
56861;DHT22;42744;51.094;3.490;2024-02-15T08:28:10;12.10;99.90
56861;DHT22;42744;51.094;3.490;2024-02-15T08:30:37;12.10;99.90
56861;DHT22;42744;51.094;3.490;2024-02-15T08:33:03;12.10;99.90
56861;DHT22;42744;51.094;3.490;2024-02-15T08:35:29;12.10;99.90
56861;DHT22;42744;51.094;3.490;2024-02-15T08:37:55;12.20;99.90
56861;DHT22;42744;51.094;3.490;2024-02-15T08:40:21;12.20;99.90
56861;DHT22;42744;51.094;3.490;2024-02-15T08:42:50;12.20;99.90
56861;DHT22;42744;51.094;3.490;2024-02-15T08:45:16;12.30;99.90
56861;DHT22;42744;51.094;3.490;2024-02-15T08:47:43;12.30;99.90
56861;DHT22;42744;51.094;3.490;2024-02-15T08:50:11;12.30;99.90
56861;DHT22;42744;51.094;3.490;2024-02-15T08:52:38;12.40;99.90
56861;DHT22;42744;51.094;3.490;2024-02-15T08:55:08;12.40;99.90
56861;DHT22;42744;51.094;3.490;2024-02-15T08:57:35;12.50;99.90
56861;DHT22;42744;51.094;3.490;2024-02-15T09:00:05;12.50;99.90
56861;DHT22;42744;51.094;3.490;2024-02-15T09:02:39;12.60;99.90
56861;DHT22;42744;51.094;3.490;2024-02-15T09:05:06;12.60;99.90
56861;DHT22;42744;51.094;3.490;2024-02-15T09:07:32;12.70;99.90
56861;DHT22;42744;51.094;3.490;2024-02-15T09:09:59;12.70;99.90
56861;DHT22;42744;51.094;3.490;2024-02-15T09:12:25;12.80;99.90
56861;DHT22;42744;51.094;3.490;2024-02-15T09:14:51;12.80;99.90
56861;DHT22;42744;51.094;3.490;2024-02-15T09:17:17;12.80;99.90
56861;DHT22;42744;51.094;3.490;2024-02-15T09:19:43;12.80;99.90
56861;DHT22;42744;51.094;3.490;2024-02-15T09:22:09;12.90;99.90
56861;DHT22;42744;51.094;3.490;2024-02-15T09:24:36;12.90;99.90
56861;DHT22;42744;51.094;3.490;2024-02-15T09:27:02;13.00;99.90
56861;DHT22;42744;51.094;3.490;2024-02-15T09:29:29;13.00;99.90
56861;DHT22;42744;51.094;3.490;2024-02-15T09:31:59;13.10;99.90
56861;DHT22;42744;51.094;3.490;2024-02-15T09:34:27;13.10;99.90
56861;DHT22;42744;51.094;3.490;2024-02-15T09:36:53;13.10;99.90
56861;DHT22;42744;51.094;3.490;2024-02-15T09:39:19;13.10;99.90
56861;DHT22;42744;51.094;3.490;2024-02-15T09:41:45;13.20;99.90
56861;DHT22;42744;51.094;3.490;2024-02-15T09:44:11;13.20;99.90
56861;DHT22;42744;51.094;3.490;2024-02-15T09:46:43;13.20;99.90
56861;DHT22;42744;51.094;3.490;2024-02-15T09:49:12;13.20;99.90
56861;DHT22;42744;51.094;3.490;2024-02-15T09:51:40;13.20;99.90
56861;DHT22;42744;51.094;3.490;2024-02-15T09:54:06;13.30;99.90
56861;DHT22;42744;51.094;3.490;2024-02-15T09:56:35;13.30;99.90
56861;DHT22;42744;51.094;3.490;2024-02-15T09:59:01;13.30;99.90
56861;DHT22;42744;51.094;3.490;2024-02-15T10:01:31;13.30;99.90
56861;DHT22;42744;51.094;3.490;2024-02-15T10:03:58;13.40;99.90
56861;DHT22;42744;51.094;3.490;2024-02-15T10:06:25;13.40;99.90
56861;DHT22;42744;51.094;3.490;2024-02-15T10:08:52;13.40;99.90
56861;DHT22;42744;51.094;3.490;2024-02-15T10:11:19;13.40;99.90
56861;DHT22;42744;51.094;3.490;2024-02-15T10:13:46;13.50;99.90
56861;DHT22;42744;51.094;3.490;2024-02-15T10:16:19;13.50;99.90
56861;DHT22;42744;51.094;3.490;2024-02-15T10:18:51;13.60;99.90
56861;DHT22;42744;51.094;3.490;2024-02-15T10:21:27;13.60;99.90
56861;DHT22;42744;51.094;3.490;2024-02-15T10:24:05;13.80;99.90
56861;DHT22;42744;51.094;3.490;2024-02-15T10:26:31;14.00;99.90
56861;DHT22;42744;51.094;3.490;2024-02-15T10:29:08;14.10;99.90
56861;DHT22;42744;51.094;3.490;2024-02-15T10:31:39;14.20;99.90
56861;DHT22;42744;51.094;3.490;2024-02-15T10:34:07;14.20;99.90
56861;DHT22;42744;51.094;3.490;2024-02-15T10:36:34;14.30;99.90
56861;DHT22;42744;51.094;3.490;2024-02-15T10:39:16;14.50;99.90
56861;DHT22;42744;51.094;3.490;2024-02-15T10:41:46;14.90;99.90
56861;DHT22;42744;51.094;3.490;2024-02-15T10:44:20;15.30;99.90
56861;DHT22;42744;51.094;3.490;2024-02-15T10:46:51;15.60;99.90
56861;DHT22;42744;51.094;3.490;2024-02-15T10:51:52;16.20;99.90
56861;DHT22;42744;51.094;3.490;2024-02-15T10:57:46;16.40;99.90
56861;DHT22;42744;51.094;3.490;2024-02-15T11:00:16;16.10;99.90
56861;DHT22;42744;51.094;3.490;2024-02-15T11:03:03;16.00;99.90
56861;DHT22;42744;51.094;3.490;2024-02-15T11:05:35;16.10;99.90
56861;DHT22;42744;51.094;3.490;2024-02-15T11:08:09;16.10;99.90
56861;DHT22;42744;51.094;3.490;2024-02-15T11:10:36;16.00;99.90
56861;DHT22;42744;51.094;3.490;2024-02-15T11:13:03;16.00;99.90
56861;DHT22;42744;51.094;3.490;2024-02-15T11:15:45;16.10;99.90
56861;DHT22;42744;51.094;3.490;2024-02-15T11:18:41;16.20;99.90
56861;DHT22;42744;51.094;3.490;2024-02-15T11:21:08;16.10;99.90
56861;DHT22;42744;51.094;3.490;2024-02-15T11:23:34;16.20;99.90
56861;DHT22;42744;51.094;3.490;2024-02-15T11:26:00;16.30;99.90
56861;DHT22;42744;51.094;3.490;2024-02-15T11:30:56;16.30;99.90
56861;DHT22;42744;51.094;3.490;2024-02-15T11:33:32;16.20;99.90
56861;DHT22;42744;51.094;3.490;2024-02-15T11:36:05;16.20;99.90
56861;DHT22;42744;51.094;3.490;2024-02-15T11:38:31;16.20;99.90
56861;DHT22;42744;51.094;3.490;2024-02-15T11:41:06;16.10;99.90
56861;DHT22;42744;51.094;3.490;2024-02-15T11:43:46;16.20;99.90
56861;DHT22;42744;51.094;3.490;2024-02-15T11:46:21;16.40;99.90
56861;DHT22;42744;51.094;3.490;2024-02-15T11:48:48;16.50;99.90
56861;DHT22;42744;51.094;3.490;2024-02-15T11:51:31;16.60;99.90
56861;DHT22;42744;51.094;3.490;2024-02-15T11:54:04;16.50;99.90
56861;DHT22;42744;51.094;3.490;2024-02-15T11:56:53;16.40;99.90
56861;DHT22;42744;51.094;3.490;2024-02-15T11:59:40;16.30;99.90
56861;DHT22;42744;51.094;3.490;2024-02-15T12:02:20;16.20;99.90
56861;DHT22;42744;51.094;3.490;2024-02-15T12:05:06;16.20;99.90
56861;DHT22;42744;51.094;3.490;2024-02-15T12:07:50;16.20;99.90
56861;DHT22;42744;51.094;3.490;2024-02-15T12:10:35;16.30;99.90
56861;DHT22;42744;51.094;3.490;2024-02-15T12:13:19;16.30;99.90
56861;DHT22;42744;51.094;3.490;2024-02-15T12:16:04;16.20;99.90
56861;DHT22;42744;51.094;3.490;2024-02-15T12:18:49;16.20;99.90
56861;DHT22;42744;51.094;3.490;2024-02-15T12:21:25;16.20;99.90
56861;DHT22;42744;51.094;3.490;2024-02-15T12:23:53;16.20;99.90
56861;DHT22;42744;51.094;3.490;2024-02-15T12:26:20;16.20;99.90
56861;DHT22;42744;51.094;3.490;2024-02-15T12:28:55;16.20;99.90
56861;DHT22;42744;51.094;3.490;2024-02-15T12:31:23;16.30;99.90
56861;DHT22;42744;51.094;3.490;2024-02-15T12:34:05;16.30;99.90
56861;DHT22;42744;51.094;3.490;2024-02-15T12:36:34;16.40;99.90
56861;DHT22;42744;51.094;3.490;2024-02-15T12:39:04;16.60;99.90
56861;DHT22;42744;51.094;3.490;2024-02-15T12:41:41;16.70;99.90
56861;DHT22;42744;51.094;3.490;2024-02-15T12:44:16;16.90;99.90
56861;DHT22;42744;51.094;3.490;2024-02-15T12:46:42;16.90;99.90
56861;DHT22;42744;51.094;3.490;2024-02-15T12:51:50;16.90;99.90
56861;DHT22;42744;51.094;3.490;2024-02-15T12:54:23;17.00;99.90
56861;DHT22;42744;51.094;3.490;2024-02-15T12:56:50;17.00;99.90
56861;DHT22;42744;51.094;3.490;2024-02-15T12:59:19;17.00;99.90
56861;DHT22;42744;51.094;3.490;2024-02-15T13:01:46;16.90;99.90
56861;DHT22;42744;51.094;3.490;2024-02-15T13:04:25;16.90;99.90
56861;DHT22;42744;51.094;3.490;2024-02-15T13:06:51;17.10;99.90
56861;DHT22;42744;51.094;3.490;2024-02-15T13:09:17;17.30;99.90
56861;DHT22;42744;51.094;3.490;2024-02-15T13:11:43;17.60;99.90
56861;DHT22;42744;51.094;3.490;2024-02-15T13:14:11;17.70;99.90
56861;DHT22;42744;51.094;3.490;2024-02-15T13:16:38;17.70;99.90
56861;DHT22;42744;51.094;3.490;2024-02-15T13:19:04;17.60;99.90
56861;DHT22;42744;51.094;3.490;2024-02-15T13:21:33;17.40;99.90
56861;DHT22;42744;51.094;3.490;2024-02-15T13:24:00;17.30;99.90
56861;DHT22;42744;51.094;3.490;2024-02-15T13:26:31;17.30;99.90
56861;DHT22;42744;51.094;3.490;2024-02-15T13:28:58;17.20;99.90
56861;DHT22;42744;51.094;3.490;2024-02-15T13:31:24;17.20;99.90
56861;DHT22;42744;51.094;3.490;2024-02-15T13:33:50;17.20;99.90
56861;DHT22;42744;51.094;3.490;2024-02-15T13:36:16;17.20;99.90
56861;DHT22;42744;51.094;3.490;2024-02-15T13:38:42;17.20;99.90
56861;DHT22;42744;51.094;3.490;2024-02-15T13:41:08;17.20;99.90
56861;DHT22;42744;51.094;3.490;2024-02-15T13:43:34;17.00;99.90
56861;DHT22;42744;51.094;3.490;2024-02-15T13:46:01;16.90;99.90
56861;DHT22;42744;51.094;3.490;2024-02-15T13:48:30;16.80;99.90
56861;DHT22;42744;51.094;3.490;2024-02-15T13:50:57;16.80;99.90
56861;DHT22;42744;51.094;3.490;2024-02-15T13:53:24;16.70;99.90
56861;DHT22;42744;51.094;3.490;2024-02-15T13:55:51;16.70;99.90
56861;DHT22;42744;51.094;3.490;2024-02-15T13:58:18;16.70;99.90
56861;DHT22;42744;51.094;3.490;2024-02-15T14:00:44;16.80;99.90
56861;DHT22;42744;51.094;3.490;2024-02-15T14:03:11;16.90;99.90
56861;DHT22;42744;51.094;3.490;2024-02-15T14:05:37;17.00;99.90
56861;DHT22;42744;51.094;3.490;2024-02-15T14:08:05;16.90;99.90
56861;DHT22;42744;51.094;3.490;2024-02-15T14:10:33;16.90;99.90
56861;DHT22;42744;51.094;3.490;2024-02-15T14:13:02;16.80;99.90
56861;DHT22;42744;51.094;3.490;2024-02-15T14:15:29;16.80;99.90
56861;DHT22;42744;51.094;3.490;2024-02-15T14:17:56;16.90;99.90
56861;DHT22;42744;51.094;3.490;2024-02-15T14:20:22;17.00;99.90
56861;DHT22;42744;51.094;3.490;2024-02-15T14:22:50;17.10;99.90
56861;DHT22;42744;51.094;3.490;2024-02-15T14:25:22;17.20;99.90
56861;DHT22;42744;51.094;3.490;2024-02-15T14:27:49;17.20;99.90
56861;DHT22;42744;51.094;3.490;2024-02-15T14:30:15;17.20;99.90
56861;DHT22;42744;51.094;3.490;2024-02-15T14:32:59;17.20;99.90
56861;DHT22;42744;51.094;3.490;2024-02-15T14:35:35;17.10;99.90
56861;DHT22;42744;51.094;3.490;2024-02-15T14:38:12;17.00;99.90
56861;DHT22;42744;51.094;3.490;2024-02-15T14:40:42;16.80;99.90
56861;DHT22;42744;51.094;3.490;2024-02-15T14:43:12;16.70;99.90
56861;DHT22;42744;51.094;3.490;2024-02-15T14:45:41;16.70;99.90
56861;DHT22;42744;51.094;3.490;2024-02-15T14:48:07;16.50;99.90
56861;DHT22;42744;51.094;3.490;2024-02-15T14:50:39;16.50;99.90
56861;DHT22;42744;51.094;3.490;2024-02-15T14:53:05;16.50;99.90
56861;DHT22;42744;51.094;3.490;2024-02-15T14:55:36;16.40;99.90
56861;DHT22;42744;51.094;3.490;2024-02-15T14:58:08;16.40;99.90
56861;DHT22;42744;51.094;3.490;2024-02-15T15:00:34;16.30;99.90
56861;DHT22;42744;51.094;3.490;2024-02-15T15:03:00;16.20;99.90
56861;DHT22;42744;51.094;3.490;2024-02-15T15:05:28;16.20;99.90
56861;DHT22;42744;51.094;3.490;2024-02-15T15:08:13;16.10;99.90
56861;DHT22;42744;51.094;3.490;2024-02-15T15:10:58;16.00;99.90
56861;DHT22;42744;51.094;3.490;2024-02-15T15:13:42;16.00;99.90
56861;DHT22;42744;51.094;3.490;2024-02-15T15:16:08;15.90;99.90
56861;DHT22;42744;51.094;3.490;2024-02-15T15:18:40;15.90;99.90
56861;DHT22;42744;51.094;3.490;2024-02-15T15:21:06;15.80;99.90
56861;DHT22;42744;51.094;3.490;2024-02-15T15:23:32;15.80;99.90
56861;DHT22;42744;51.094;3.490;2024-02-15T15:25:58;15.80;99.90
56861;DHT22;42744;51.094;3.490;2024-02-15T15:28:24;15.70;99.90
56861;DHT22;42744;51.094;3.490;2024-02-15T15:30:51;15.70;99.90
56861;DHT22;42744;51.094;3.490;2024-02-15T15:33:17;15.70;99.90
56861;DHT22;42744;51.094;3.490;2024-02-15T15:35:44;15.70;99.90
56861;DHT22;42744;51.094;3.490;2024-02-15T15:38:10;15.60;99.90
56861;DHT22;42744;51.094;3.490;2024-02-15T15:40:37;15.60;99.90
56861;DHT22;42744;51.094;3.490;2024-02-15T15:43:03;15.60;99.90
56861;DHT22;42744;51.094;3.490;2024-02-15T15:45:33;15.60;99.90
56861;DHT22;42744;51.094;3.490;2024-02-15T15:47:59;15.60;99.90
56861;DHT22;42744;51.094;3.490;2024-02-15T15:50:29;15.50;99.90
56861;DHT22;42744;51.094;3.490;2024-02-15T15:53:04;15.40;99.90